createdAt,value
2023-04-12T00:04:55.617Z,1.25
2023-04-12T00:10:59.350Z,1.50
2023-04-12T00:17:04.119Z,1.58
2023-04-12T00:23:09.774Z,1.58
2023-04-12T00:29:13.450Z,1.30
2023-04-12T00:35:18.234Z,1.20
2023-04-12T00:41:23.869Z,1.20
2023-04-12T00:47:29.629Z,1.30
2023-04-12T00:53:35.082Z,1.27
2023-04-12T00:59:38.582Z,1.63
2023-04-12T01:05:45.748Z,0.90
2023-04-12T01:11:56.392Z,2.33
2023-04-12T01:18:04.258Z,1.50
2023-04-12T01:24:22.531Z,1.83
2023-04-12T01:30:28.687Z,2.05
2023-04-12T01:36:32.817Z,1.48
2023-04-12T01:42:36.193Z,1.90
2023-04-12T01:48:41.220Z,1.40
2023-04-12T01:54:45.925Z,1.02
2023-04-12T02:00:50.289Z,1.08
2023-04-12T02:06:56.090Z,1.58
2023-04-12T02:13:03.097Z,0.93
2023-04-12T02:19:09.011Z,1.42
2023-04-12T02:25:14.321Z,1.20
2023-04-12T02:31:18.746Z,1.23
2023-04-12T02:37:24.333Z,2.00
2023-04-12T02:43:29.183Z,1.77
2023-04-12T02:49:32.828Z,1.30
2023-04-12T02:55:36.962Z,0.95
2023-04-12T03:01:46.514Z,1.48
2023-04-12T03:07:50.212Z,1.30
2023-04-12T03:13:54.018Z,1.13
2023-04-12T03:20:07.824Z,1.38
2023-04-12T03:26:11.374Z,1.70
2023-04-12T03:32:14.947Z,1.35
2023-04-12T03:38:19.765Z,1.20
2023-04-12T03:44:26.171Z,0.93
2023-04-12T03:50:31.892Z,1.08
2023-04-12T03:56:36.654Z,0.90
2023-04-12T04:02:40.284Z,1.00
2023-04-12T04:08:44.735Z,1.40
2023-04-12T04:14:49.629Z,1.25
2023-04-12T04:20:53.190Z,1.30
2023-04-12T04:26:56.653Z,1.13
2023-04-12T04:33:01.524Z,1.30
2023-04-12T04:39:05.654Z,1.63
2023-04-12T04:45:13.791Z,1.02
2023-04-12T04:51:18.633Z,1.30
2023-04-12T04:57:22.136Z,1.23
2023-04-12T05:03:30.228Z,1.73
2023-04-12T05:09:35.899Z,1.20
2023-04-12T05:15:42.197Z,1.33
2023-04-12T05:21:45.603Z,0.85
2023-04-12T05:27:52.026Z,1.58
2023-04-12T05:33:55.722Z,1.52
2023-04-12T05:39:59.396Z,1.50
2023-04-12T05:46:04.292Z,1.45
2023-04-12T05:52:07.940Z,1.52
2023-04-12T05:58:11.997Z,1.52
2023-04-12T06:04:16.960Z,1.48
2023-04-12T06:10:20.775Z,1.02
2023-04-12T06:16:24.393Z,1.48
2023-04-12T06:22:29.234Z,1.15
2023-04-12T06:28:32.982Z,1.38
2023-04-12T06:34:36.874Z,1.05
2023-04-12T06:40:41.801Z,1.35
2023-04-12T06:46:45.468Z,1.40
2023-04-12T06:52:49.076Z,0.77
2023-04-12T06:58:53.893Z,0.98
2023-04-12T07:04:57.761Z,1.35
2023-04-12T07:11:08.889Z,1.50
2023-04-12T07:17:27.232Z,1.17
2023-04-12T07:23:31.520Z,1.58
2023-04-12T07:29:35.006Z,1.40
2023-04-12T07:35:40.039Z,1.05
2023-04-12T07:41:48.468Z,1.63
2023-04-12T07:47:52.313Z,1.60
2023-04-12T07:53:57.360Z,1.38
2023-04-12T08:00:01.120Z,1.58
2023-04-12T08:06:04.730Z,1.70
2023-04-12T08:12:09.970Z,1.42
2023-04-12T08:18:13.394Z,1.65
2023-04-12T08:24:16.796Z,1.38
2023-04-12T08:30:26.702Z,1.10
2023-04-12T08:36:30.216Z,1.40
2023-04-12T08:42:33.852Z,1.08
2023-04-12T08:48:38.667Z,1.02
2023-04-12T08:54:42.098Z,2.08
2023-04-12T09:00:46.312Z,1.60
2023-04-12T09:06:51.164Z,1.50
2023-04-12T09:12:54.682Z,2.00
2023-04-12T09:18:58.560Z,1.38
2023-04-12T09:25:03.770Z,2.58
2023-04-12T09:31:17.465Z,1.10
2023-04-12T09:37:20.965Z,1.95
2023-04-12T09:43:39.213Z,2.10
2023-04-12T09:49:43.966Z,1.92
2023-04-12T09:55:48.783Z,1.20
2023-04-12T10:01:54.707Z,0.57
2023-04-12T10:07:58.680Z,0.50
2023-04-12T10:14:03.775Z,0.40
2023-04-12T10:20:10.179Z,0.40
2023-04-12T10:26:13.854Z,0.40
2023-04-12T10:32:21.786Z,0.60
2023-04-12T10:38:32.439Z,0.40
2023-04-12T10:44:37.934Z,0.60
2023-04-12T10:50:41.379Z,0.40
2023-04-12T10:56:46.690Z,0.50
2023-04-12T11:03:07.847Z,0.70
2023-04-12T11:09:18.935Z,0.63
2023-04-12T11:15:28.912Z,1.25
2023-04-12T11:21:32.659Z,1.13
2023-04-12T11:27:38.084Z,0.60
2023-04-12T11:33:43.051Z,0.77
2023-04-12T11:39:47.129Z,0.90
2023-04-12T11:45:50.912Z,0.70
2023-04-12T11:52:04.630Z,0.40
2023-04-12T11:58:08.772Z,0.57
2023-04-12T12:04:12.442Z,0.75
2023-04-12T12:10:32.559Z,0.60
2023-04-12T12:16:42.017Z,0.70
2023-04-12T12:22:47.988Z,0.70
2023-04-12T12:28:53.539Z,0.60
2023-04-12T12:34:58.467Z,0.90
2023-04-12T12:41:15.608Z,1.08
2023-04-12T12:47:20.427Z,0.60
2023-04-12T12:53:24.619Z,0.52
2023-04-12T12:59:28.360Z,0.55
2023-04-12T13:05:33.323Z,0.40
2023-04-12T13:11:37.057Z,0.82
2023-04-12T13:17:40.504Z,0.65
2023-04-12T13:23:45.445Z,0.50
2023-04-12T13:29:48.831Z,0.57
2023-04-12T13:35:52.400Z,0.50
2023-04-12T13:41:58.194Z,0.65
2023-04-12T13:48:01.952Z,0.90
2023-04-12T13:54:05.712Z,0.80
2023-04-12T14:00:11.560Z,0.90
2023-04-12T14:06:15.054Z,1.35
2023-04-12T14:12:18.464Z,0.50
2023-04-12T14:18:23.293Z,0.50
2023-04-12T14:24:27.188Z,0.70
2023-04-12T14:30:30.812Z,0.47
2023-04-12T14:36:35.623Z,0.77
2023-04-12T14:42:38.982Z,0.85
2023-04-12T14:48:42.774Z,0.63
2023-04-12T14:54:47.519Z,1.13
2023-04-12T15:00:50.971Z,0.77
2023-04-12T15:06:54.500Z,1.08
2023-04-12T15:12:59.300Z,0.77
2023-04-12T15:19:10.684Z,0.93
2023-04-12T15:25:17.088Z,0.82
2023-04-12T15:31:22.117Z,0.60
2023-04-12T15:37:25.671Z,0.85
2023-04-12T15:43:29.836Z,1.08
2023-04-12T15:49:35.908Z,0.65
2023-04-12T15:55:40.838Z,0.50
2023-04-12T16:01:44.338Z,0.85
2023-04-12T16:07:51.134Z,1.30
2023-04-12T16:13:55.224Z,1.00
2023-04-12T16:19:58.996Z,1.00
2023-04-12T16:26:03.889Z,0.90
2023-04-12T16:32:08.254Z,1.05
2023-04-12T16:38:13.331Z,0.80
2023-04-12T16:44:22.030Z,0.98
2023-04-12T16:50:26.549Z,1.10
2023-04-12T16:56:30.043Z,0.70
2023-04-12T17:02:35.626Z,0.90
2023-04-12T17:08:39.404Z,0.90
2023-04-12T17:14:42.834Z,1.17
2023-04-12T17:20:47.756Z,1.00
2023-04-12T17:26:51.473Z,0.80
2023-04-12T17:32:56.498Z,0.73
2023-04-12T17:39:04.802Z,1.00
2023-04-12T17:45:11.121Z,1.35
2023-04-12T17:51:16.138Z,0.93
2023-04-12T17:57:21.451Z,1.20
2023-04-12T18:03:25.083Z,1.40
2023-04-12T18:09:28.638Z,1.10
2023-04-12T18:15:33.671Z,0.45
2023-04-12T18:21:37.151Z,0.75
2023-04-12T18:27:42.433Z,0.93
2023-04-12T18:33:47.237Z,0.90
2023-04-12T18:39:53.193Z,1.20
2023-04-12T18:45:57.104Z,1.00
2023-04-12T18:52:01.930Z,0.73
2023-04-12T18:58:05.468Z,1.10
2023-04-12T19:04:09.302Z,1.08
2023-04-12T19:10:14.692Z,0.50
2023-04-12T19:16:18.158Z,1.38
2023-04-12T19:22:21.778Z,0.73
2023-04-12T19:28:26.897Z,1.15
2023-04-12T19:34:30.329Z,0.63
2023-04-12T19:40:33.775Z,0.60
2023-04-12T19:46:39.061Z,0.55
2023-04-12T19:52:42.878Z,0.90
2023-04-12T19:58:46.298Z,0.50
2023-04-12T20:04:51.452Z,0.80
2023-04-12T20:10:55.176Z,0.82
2023-04-12T20:16:58.622Z,0.45
2023-04-12T20:23:03.499Z,0.63
2023-04-12T20:29:08.329Z,0.60
2023-04-12T20:35:13.139Z,0.40
2023-04-12T20:41:18.699Z,0.60
2023-04-12T20:47:22.405Z,0.47
2023-04-12T20:53:25.843Z,0.47
2023-04-12T20:59:30.662Z,0.55
2023-04-12T21:05:34.247Z,0.40
2023-04-12T21:11:37.928Z,0.30
2023-04-12T21:17:42.915Z,0.70
2023-04-12T21:23:46.494Z,0.45
2023-04-12T21:29:50.195Z,0.40
2023-04-12T21:35:55.909Z,0.40
2023-04-12T21:41:59.301Z,0.30
2023-04-12T21:48:02.806Z,0.60
2023-04-12T21:54:07.645Z,0.30
2023-04-12T22:00:11.496Z,0.40
2023-04-12T22:06:15.268Z,0.40
2023-04-12T22:12:20.421Z,0.50
2023-04-12T22:18:23.790Z,0.70
2023-04-12T22:24:27.367Z,0.50
2023-04-12T22:30:32.261Z,0.40
2023-04-12T22:36:37.539Z,0.60
2023-04-12T22:42:46.199Z,0.65
2023-04-12T22:48:52.107Z,0.68
2023-04-12T22:54:56.736Z,1.33
2023-04-12T23:01:00.257Z,1.27
2023-04-12T23:07:05.172Z,1.05
2023-04-12T23:13:08.873Z,1.45
2023-04-12T23:19:12.948Z,1.33
2023-04-12T23:25:17.808Z,1.40
2023-04-12T23:31:21.267Z,1.73
2023-04-12T23:37:24.688Z,2.00
2023-04-12T23:43:30.046Z,1.13
2023-04-12T23:49:33.697Z,0.40
2023-04-12T23:55:37.089Z,0.30
